Time;durP1;ratioP1;P1;durP2;ratioP2;P2;SDS_P1;SDS_P2;PMS_P1;PMS_P2;Temp;Humidity;BMP_temperature;BMP_pressure;BME280_temperature;BME280_humidity;BME280_pressure;Samples;Min_cycle;Max_cycle;Signal;HPM_P1;HPM_P2
2022/11/06 00:00:11;;;;;;;33.10;16.10;;;;;;;8.25;85.63;99102.54;86274;1313;24272;-74
2022/11/06 00:02:30;;;;;;;37.30;15.90;;;;;;;8.23;85.53;99109.23;86469;1295;22539;-72
2022/11/06 00:04:32;;;;;;;27.30;16.70;;;;;;;8.21;85.24;99109.86;86438;1286;99195;-74
2022/11/06 00:06:46;;;;;;;35.30;17.30;;;;;;;8.23;85.83;99110.14;86312;1294;22557;-72
2022/11/06 00:08:48;;;;;;;30.60;17.50;;;;;;;8.23;85.60;99109.45;86394;1294;23616;-73
2022/11/06 00:10:50;;;;;;;31.70;16.50;;;;;;;8.22;85.72;99105.77;86305;1290;98380;-76
2022/11/06 00:12:52;;;;;;;27.30;17.60;;;;;;;8.23;85.56;99111.68;86321;1290;24261;-73
2022/11/06 00:14:54;;;;;;;29.00;17.50;;;;;;;8.24;85.72;99112.02;86424;1290;22570;-72
2022/11/06 00:16:55;;;;;;;26.20;17.10;;;;;;;8.23;85.59;99117.11;86355;1310;98345;-74
2022/11/06 00:19:01;;;;;;;42.80;18.60;;;;;;;8.22;85.73;99117.69;86442;1293;23903;-74
2022/11/06 00:21:14;;;;;;;27.50;18.40;;;;;;;8.21;85.52;99121.93;86443;1288;23673;-73
2022/11/06 00:23:16;;;;;;;29.20;17.60;;;;;;;8.21;85.48;99126.83;86326;1290;99556;-73
2022/11/06 00:25:18;;;;;;;34.80;19.90;;;;;;;8.19;85.83;99127.05;86453;1297;22794;-74
2022/11/06 00:27:19;;;;;;;27.40;18.60;;;;;;;8.18;85.93;99130.08;86624;1291;22531;-73
2022/11/06 00:29:21;;;;;;;35.40;19.20;;;;;;;8.17;85.67;99133.61;86547;1294;99303;-73
2022/11/06 00:31:27;;;;;;;37.50;19.80;;;;;;;8.15;85.70;99130.17;86618;1299;22789;-73
2022/11/06 00:33:29;;;;;;;33.40;19.70;;;;;;;8.15;85.84;99131.23;86412;1296;22609;-74
2022/11/06 00:35:30;;;;;;;37.10;20.30;;;;;;;8.14;85.74;99127.94;86236;1289;98548;-74
2022/11/06 00:37:33;;;;;;;32.50;19.70;;;;;;;8.13;85.62;99126.59;86314;1290;24374;-72
2022/11/06 00:39:35;;;;;;;33.40;20.50;;;;;;;8.12;85.62;99125.73;86411;1293;22701;-73
2022/11/06 00:41:37;;;;;;;35.90;20.90;;;;;;;8.09;85.59;99124.43;86121;1290;22769;-74
2022/11/06 00:43:39;;;;;;;37.10;21.00;;;;;;;8.09;85.53;99128.64;86290;1291;22512;-73
2022/11/06 00:45:41;;;;;;;41.90;20.40;;;;;;;8.06;85.44;99122.98;86044;1306;99395;-73
2022/11/06 00:47:45;;;;;;;29.70;19.50;;;;;;;8.08;85.78;99129.58;86385;1282;22631;-73
2022/11/06 00:49:48;;;;;;;44.10;21.00;;;;;;;8.05;85.72;99129.31;86090;1305;22473;-73
2022/11/06 00:51:50;;;;;;;40.50;19.50;;;;;;;8.04;85.65;99126.91;86081;1292;98291;-74
2022/11/06 00:53:57;;;;;;;36.30;22.80;;;;;;;8.02;85.85;99129.59;86207;1304;22478;-73
2022/11/06 00:56:06;;;;;;;29.40;19.30;;;;;;;8.00;85.70;99127.56;86124;1290;25390;-74
2022/11/06 00:58:08;;;;;;;36.70;19.60;;;;;;;7.97;85.84;99126.09;86076;1289;99243;-73
2022/11/06 01:00:11;;;;;;;43.50;19.10;;;;;;;7.95;85.69;99127.03;86114;1298;22465;-74
2022/11/06 01:02:13;;;;;;;32.60;19.80;;;;;;;7.94;85.68;99130.59;86131;1290;24257;-73
2022/11/06 01:04:22;;;;;;;39.30;21.10;;;;;;;7.92;85.63;99135.19;85946;1285;98633;-75
2022/11/06 01:06:27;;;;;;;47.80;21.20;;;;;;;7.91;85.82;99136.62;86196;1287;22485;-73
2022/11/06 01:08:28;;;;;;;34.10;20.60;;;;;;;7.91;85.76;99139.59;86315;1294;22524;-73
2022/11/06 01:10:35;;;;;;;32.60;20.00;;;;;;;7.90;85.71;99136.84;85929;1290;99914;-74
2022/11/06 01:12:37;;;;;;;37.50;21.20;;;;;;;7.86;85.63;99135.41;86163;1291;24259;-74
2022/11/06 01:14:40;;;;;;;35.80;21.20;;;;;;;7.90;85.84;99139.64;86024;1290;22540;-73
2022/11/06 01:16:43;;;;;;;32.80;19.90;;;;;;;7.89;85.88;99139.66;86043;1293;98187;-73
2022/11/06 01:18:45;;;;;;;33.30;20.80;;;;;;;7.89;85.97;99140.18;86133;1291;26119;-73
2022/11/06 01:20:47;;;;;;;38.10;20.60;;;;;;;7.89;85.84;99139.32;86282;1291;25386;-73
2022/11/06 01:22:52;;;;;;;37.70;21.80;;;;;;;7.89;85.59;99137.42;86076;1290;99315;-74
2022/11/06 01:24:54;;;;;;;35.40;20.60;;;;;;;7.89;85.68;99134.96;86241;1296;22652;-73
2022/11/06 01:26:56;;;;;;;40.20;21.50;;;;;;;7.88;85.68;99124.83;86070;1291;22540;-73
2022/11/06 01:28:58;;;;;;;39.60;22.20;;;;;;;7.89;85.97;99134.44;85935;1289;99185;-73
2022/11/06 01:31:08;;;;;;;39.30;22.50;;;;;;;7.88;85.63;99136.38;86340;1293;22482;-72
2022/11/06 01:33:10;;;;;;;44.90;21.40;;;;;;;7.88;85.59;99138.67;86022;1290;22521;-73
2022/11/06 01:35:12;;;;;;;40.30;22.00;;;;;;;7.87;85.75;99132.92;86141;1287;98135;-73
2022/11/06 01:37:13;;;;;;;39.80;21.80;;;;;;;7.87;85.71;99135.02;86039;1299;22616;-75
2022/11/06 01:39:15;;;;;;;45.10;22.10;;;;;;;7.88;85.76;99137.45;86260;1291;23056;-74
2022/11/06 01:41:24;;;;;;;31.50;20.90;;;;;;;7.89;85.56;99138.80;86105;1290;99780;-74
2022/11/06 01:43:44;;;;;;;39.20;21.80;;;;;;;7.89;85.88;99141.45;86043;1291;25563;-74
2022/11/06 01:45:51;;;;;;;42.80;21.80;;;;;;;7.88;85.52;99135.69;86060;1291;98852;-74
2022/11/06 01:47:53;;;;;;;31.20;21.50;;;;;;;7.89;85.96;99139.51;86178;1287;22492;-73
2022/11/06 01:50:00;;;;;;;40.70;23.30;;;;;;;7.90;85.73;99139.83;86110;1290;24916;-74
2022/11/06 01:52:07;;;;;;;35.20;22.60;;;;;;;7.89;85.56;99140.73;85988;1289;99266;-73
2022/11/06 01:54:10;;;;;;;38.00;22.20;;;;;;;7.89;85.59;99142.48;86110;1290;24267;-73
2022/11/06 01:56:13;;;;;;;34.70;20.70;;;;;;;7.89;85.70;99141.42;86087;1293;22438;-73
2022/11/06 01:58:18;;;;;;;42.80;22.00;;;;;;;7.89;85.66;99139.15;86078;1287;98449;-74
2022/11/06 02:00:20;;;;;;;36.20;21.50;;;;;;;7.89;85.62;99141.97;86246;1293;22481;-73
2022/11/06 02:02:23;;;;;;;36.90;22.30;;;;;;;7.87;85.71;99139.75;86280;1290;22731;-73
2022/11/06 02:04:36;;;;;;;35.10;21.70;;;;;;;7.88;85.91;99143.91;86166;1289;99467;-74
2022/11/06 02:06:38;;;;;;;47.40;22.30;;;;;;;7.88;85.72;99140.94;86331;1291;22512;-73
2022/11/06 02:08:40;;;;;;;37.80;21.60;;;;;;;7.88;85.65;99141.13;86259;1290;24251;-74
2022/11/06 02:10:43;;;;;;;42.90;23.30;;;;;;;7.87;85.71;99140.79;86806;1298;99604;-75
2022/11/06 02:13:08;;;;;;;47.50;23.00;;;;;;;7.87;85.75;99142.02;86850;1299;24223;-73
2022/11/06 02:15:31;;;;;;;47.10;22.30;;;;;;;7.87;85.71;99142.90;86615;1291;22599;-74
2022/11/06 02:17:35;;;;;;;45.80;21.40;;;;;;;7.86;85.59;99144.50;86703;1288;99161;-74
2022/11/06 02:19:47;;;;;;;42.00;21.60;;;;;;;7.85;85.61;99141.75;86532;1288;22626;-73
2022/11/06 02:22:20;;;;;;;38.10;22.20;;;;;;;7.83;85.64;99141.10;86033;1292;98842;-76
2022/11/06 02:24:41;;;;;;;41.20;21.80;;;;;;;7.83;85.79;99146.16;86251;1289;24057;-72
2022/11/06 02:26:46;;;;;;;51.00;22.50;;;;;;;7.83;85.62;99147.05;86251;1287;23370;-73
2022/11/06 02:29:06;;;;;;;39.20;22.50;;;;;;;7.81;85.64;99143.43;86163;1287;99357;-72
2022/11/06 02:31:16;;;;;;;41.80;23.20;;;;;;;7.80;85.60;99144.52;86172;1285;22568;-74
2022/11/06 02:33:27;;;;;;;39.90;21.10;;;;;;;7.80;85.64;99149.43;86188;1284;22615;-74
2022/11/06 02:35:40;;;;;;;57.50;22.90;;;;;;;7.79;85.62;99151.39;86093;1291;98156;-74
2022/11/06 02:37:45;;;;;;;42.50;22.60;;;;;;;7.78;85.61;99152.48;86213;1284;24275;-74
2022/11/06 02:39:50;;;;;;;33.90;21.90;;;;;;;7.77;85.58;99151.10;86126;1290;98244;-74
2022/11/06 02:41:55;;;;;;;37.10;22.10;;;;;;;7.77;85.64;99153.20;86182;1290;22523;-73
2022/11/06 02:43:58;;;;;;;44.90;22.60;;;;;;;7.76;85.84;99156.20;86216;1285;25316;-73
2022/11/06 02:46:10;;;;;;;43.70;21.80;;;;;;;7.76;85.48;99157.61;86286;1273;99135;-74
2022/11/06 02:48:17;;;;;;;42.60;22.00;;;;;;;7.74;85.85;99159.09;86230;1290;23207;-73
2022/11/06 02:50:29;;;;;;;49.80;24.70;;;;;;;7.73;85.48;99157.70;86078;1287;22494;-74
2022/11/06 02:52:37;;;;;;;47.30;22.60;;;;;;;7.74;85.88;99163.63;86206;1287;99316;-73
2022/11/06 02:54:45;;;;;;;32.90;21.00;;;;;;;7.74;85.65;99163.80;86350;1287;22555;-73
2022/11/06 02:56:51;;;;;;;40.80;21.50;;;;;;;7.72;85.58;99164.56;86211;1289;23353;-74
2022/11/06 02:59:00;;;;;;;36.00;21.70;;;;;;;7.71;85.73;99165.13;86439;1281;98344;-74
2022/11/06 03:01:07;;;;;;;54.30;23.30;;;;;;;7.69;85.69;99167.48;86398;1287;22514;-72
2022/11/06 03:03:21;;;;;;;46.30;22.10;;;;;;;7.67;85.69;99163.33;86216;1284;26486;-73
2022/11/06 03:05:32;;;;;;;37.10;20.80;;;;;;;7.67;85.91;99168.91;86075;1284;98021;-73
2022/11/06 03:07:40;;;;;;;33.60;21.80;;;;;;;7.67;85.47;99169.98;85964;1291;22595;-73
2022/11/06 03:09:43;;;;;;;48.60;22.00;;;;;;;7.68;85.80;99166.09;86009;1284;98681;-73
2022/11/06 03:11:55;;;;;;;41.30;21.20;;;;;;;7.67;85.66;99162.09;86093;1290;22538;-73
2022/11/06 03:14:11;;;;;;;44.00;21.30;;;;;;;7.67;85.56;99161.41;85906;1287;24292;-72
2022/11/06 03:16:51;;;;;;;47.50;21.20;;;;;;;7.66;85.70;99160.73;85759;1286;100001;-73
2022/11/06 03:19:26;;;;;;;40.10;21.20;;;;;;;7.65;85.54;99160.92;85852;1295;22598;-73
2022/11/06 03:21:43;;;;;;;37.90;20.10;;;;;;;7.65;85.68;99159.71;85935;1283;22506;-72
2022/11/06 03:23:52;;;;;;;38.20;20.00;;;;;;;7.64;85.88;99155.73;85885;1291;22536;-73
2022/11/06 03:26:13;;;;;;;36.60;20.70;;;;;;;7.61;85.74;99152.69;85964;1289;23659;-73
2022/11/06 03:28:45;;;;;;;43.50;22.50;;;;;;;7.56;85.54;99154.26;85909;1291;99257;-73
2022/11/06 03:30:51;;;;;;;;;;;;;;;7.55;85.66;99154.46;86017;1283;22445;-74
2022/11/06 03:32:55;;;;;;;35.40;19.70;;;;;;;7.52;85.48;99153.51;85892;1285;22931;-72
2022/11/06 03:35:10;;;;;;;32.60;20.20;;;;;;;7.49;85.67;99157.79;86436;1290;99300;-72
2022/11/06 03:37:19;;;;;;;42.90;20.70;;;;;;;7.46;85.57;99159.46;86001;1283;25394;-73
2022/11/06 03:39:29;;;;;;;40.50;21.40;;;;;;;7.45;85.70;99161.09;85959;1289;22769;-74
2022/11/06 03:41:40;;;;;;;34.00;19.90;;;;;;;7.44;85.64;99163.21;85958;1290;99367;-73
2022/11/06 03:43:43;;;;;;;;;;;;;;;7.44;85.78;99168.96;85989;1291;22471;-73
2022/11/06 03:45:46;;;;;;;40.50;21.40;;;;;;;7.42;85.58;99167.84;85881;1283;84489;-74
2022/11/06 03:47:57;;;;;;;43.90;21.30;;;;;;;7.42;85.63;99170.45;85961;1289;22462;-74
2022/11/06 03:50:05;;;;;;;47.50;22.50;;;;;;;7.41;85.74;99168.73;86198;1287;22677;-73
2022/11/06 03:52:14;;;;;;;44.20;20.70;;;;;;;7.40;85.53;99176.09;85850;1292;99493;-72
2022/11/06 03:54:22;;;;;;;32.00;20.20;;;;;;;7.38;85.56;99178.97;85895;1293;22667;-73
2022/11/06 03:56:38;;;;;;;36.90;21.30;;;;;;;7.36;85.81;99176.05;86024;1283;24371;-73
2022/11/06 03:58:44;;;;;;;44.60;21.50;;;;;;;7.33;85.82;99181.02;85981;1289;99901;-74
2022/11/06 04:00:49;;;;;;;43.00;20.80;;;;;;;7.27;85.79;99175.45;86115;1289;22581;-73
2022/11/06 04:03:03;;;;;;;43.40;21.50;;;;;;;7.31;85.67;99183.70;86237;1286;22629;-73
2022/11/06 04:05:14;;;;;;;41.10;20.10;;;;;;;7.30;85.47;99184.77;85768;1292;99272;-75
2022/11/06 04:07:21;;;;;;;41.70;21.40;;;;;;;7.31;85.75;99189.65;86077;1291;22790;-73
2022/11/06 04:14:16;;;;;;;47.70;22.60;;;;;;;7.30;85.88;99190.74;86084;1283;22574;-73
2022/11/06 04:16:18;;;;;;;53.60;23.20;;;;;;;7.30;85.86;99195.45;86029;1286;99784;-73
2022/11/06 04:18:20;;;;;;;38.30;23.20;;;;;;;7.29;85.71;99195.98;85985;1291;24435;-72
2022/11/06 04:22:59;;;;;;;51.80;22.70;;;;;;;7.29;85.79;99198.82;86130;1283;99773;-73
2022/11/06 04:28:28;;;;;;;40.00;23.00;;;;;;;7.28;85.68;99202.70;86051;1287;99345;-73
2022/11/06 04:30:38;;;;;;;51.70;22.80;;;;;;;7.27;85.83;99203.05;86103;1289;24295;-73
2022/11/06 04:33:04;;;;;;;38.30;22.00;;;;;;;7.26;85.84;99202.22;86321;1287;25588;-73
2022/11/06 04:35:27;;;;;;;44.70;23.60;;;;;;;7.25;85.70;99205.23;86204;1287;99670;-72
2022/11/06 04:37:47;;;;;;;38.90;22.00;;;;;;;7.24;85.66;99203.85;86193;1287;22939;-72
2022/11/06 04:40:04;;;;;;;47.30;23.50;;;;;;;7.24;85.75;99207.36;86145;1291;98422;-73
2022/11/06 04:42:41;;;;;;;37.30;22.30;;;;;;;7.24;85.72;99206.29;86174;1287;22519;-73
2022/11/06 04:44:49;;;;;;;42.80;23.00;;;;;;;7.21;85.96;99201.15;86191;1287;22575;-74
2022/11/06 04:47:01;;;;;;;39.10;21.70;;;;;;;7.18;85.70;99200.02;86078;1290;98286;-74
2022/11/06 04:49:06;;;;;;;47.10;24.70;;;;;;;7.17;86.07;99202.69;86061;1283;25374;-72
2022/11/06 04:51:10;;;;;;;49.20;21.80;;;;;;;7.18;85.85;99202.48;86112;1291;22556;-73
2022/11/06 04:53:14;;;;;;;43.90;22.80;;;;;;;7.15;86.11;99205.88;86218;1287;99268;-73
2022/11/06 04:55:16;;;;;;;40.30;23.10;;;;;;;7.14;86.02;99206.27;86068;1289;22564;-73
2022/11/06 04:57:18;;;;;;;40.00;23.50;;;;;;;7.13;85.80;99208.91;86035;1292;22575;-73
2022/11/06 04:59:20;;;;;;;49.70;23.30;;;;;;;7.11;86.08;99207.73;86045;1283;99131;-73
2022/11/06 05:01:22;;;;;;;45.90;23.30;;;;;;;7.12;85.96;99212.25;86174;1289;25249;-73
2022/11/06 05:03:24;;;;;;;37.80;21.80;;;;;;;7.11;86.03;99208.27;86090;1291;25669;-73
2022/11/06 05:05:26;;;;;;;44.90;22.00;;;;;;;7.11;86.00;99209.51;85896;1292;99958;-72
2022/11/06 05:07:27;;;;;;;43.10;20.90;;;;;;;7.10;85.99;99209.01;86070;1291;22503;-72
2022/11/06 05:09:29;;;;;;;48.50;23.50;;;;;;;7.07;85.94;99209.44;85945;1292;22620;-74
2022/11/06 05:11:31;;;;;;;40.30;22.50;;;;;;;7.06;85.61;99212.62;86155;1289;99774;-73
2022/11/06 05:13:33;;;;;;;40.80;23.00;;;;;;;7.06;85.87;99212.63;86208;1283;22616;-74
2022/11/06 05:15:34;;;;;;;44.00;23.20;;;;;;;7.05;85.96;99210.38;86072;1284;25516;-74
2022/11/06 05:17:36;;;;;;;32.30;22.00;;;;;;;7.05;86.05;99214.23;86210;1291;99171;-73
2022/11/06 05:19:38;;;;;;;49.30;23.30;;;;;;;7.04;85.94;99209.36;86201;1284;23388;-73
2022/11/06 05:24:00;;;;;;;43.90;24.00;;;;;;;7.04;86.04;99215.48;86104;1284;22840;-72
2022/11/06 05:26:02;;;;;;;42.80;23.80;;;;;;;7.04;85.93;99217.08;86233;1281;22542;-73
2022/11/06 05:28:05;;;;;;;43.20;22.80;;;;;;;7.05;85.95;99215.09;86019;1291;98251;-73
2022/11/06 05:30:10;;;;;;;48.90;22.70;;;;;;;7.04;86.02;99218.10;86107;1283;22770;-73
2022/11/06 05:32:11;;;;;;;37.40;23.40;;;;;;;7.03;85.93;99215.69;86174;1291;22580;-73
2022/11/06 05:34:13;;;;;;;39.60;23.80;;;;;;;7.03;85.96;99216.91;85986;1292;99327;-72
2022/11/06 05:36:15;;;;;;;45.80;22.40;;;;;;;7.03;85.84;99217.27;86111;1291;22523;-72
2022/11/06 05:38:16;;;;;;;42.10;22.50;;;;;;;7.02;86.23;99222.01;86139;1289;22552;-73
2022/11/06 05:40:18;;;;;;;41.90;21.80;;;;;;;7.01;85.83;99225.18;85948;1283;99428;-73
2022/11/06 05:42:20;;;;;;;38.20;22.80;;;;;;;7.00;85.99;99225.39;86020;1284;22529;-73
2022/11/06 05:44:22;;;;;;;49.20;22.90;;;;;;;6.99;85.83;99225.93;85985;1291;24329;-73
2022/11/06 05:46:24;;;;;;;43.20;22.10;;;;;;;6.99;86.18;99227.33;85820;1283;98372;-72
2022/11/06 05:48:27;;;;;;;42.20;21.80;;;;;;;6.98;86.13;99230.84;86133;1290;22464;-71
2022/11/06 05:50:29;;;;;;;38.40;22.10;;;;;;;6.97;85.95;99233.50;85841;1292;22513;-71
2022/11/06 05:52:30;;;;;;;50.10;23.50;;;;;;;6.96;85.83;99235.61;86075;1311;99264;-73
2022/11/06 05:54:32;;;;;;;47.20;23.40;;;;;;;6.97;85.94;99237.52;86528;1291;22473;-73
2022/11/06 05:56:34;;;;;;;44.30;21.70;;;;;;;6.96;85.94;99237.37;86285;1284;25701;-72
2022/11/06 05:58:35;;;;;;;41.20;23.10;;;;;;;6.94;86.07;99241.61;86082;1290;98280;-72
2022/11/06 06:00:37;;;;;;;34.50;20.00;;;;;;;6.93;85.86;99243.06;86131;1290;27525;-73
2022/11/06 06:02:40;;;;;;;49.70;22.90;;;;;;;6.91;85.93;99245.38;86215;1283;22498;-71
2022/11/06 06:04:41;;;;;;;50.60;22.50;;;;;;;6.88;85.73;99250.35;86010;1291;98329;-73
2022/11/06 06:06:43;;;;;;;41.70;21.50;;;;;;;6.88;85.72;99253.00;85998;1286;22511;-72
2022/11/06 06:08:45;;;;;;;41.30;22.40;;;;;;;6.87;85.91;99251.07;86330;1288;22472;-74
2022/11/06 06:10:47;;;;;;;42.70;21.80;;;;;;;6.88;85.87;99254.20;85897;1285;99517;-72
2022/11/06 06:12:49;;;;;;;41.20;21.90;;;;;;;6.88;86.09;99260.84;86046;1283;22488;-72
2022/11/06 06:14:52;;;;;;;44.30;21.60;;;;;;;6.88;85.85;99262.42;86030;1289;22492;-73
2022/11/06 06:16:53;;;;;;;40.50;20.30;;;;;;;6.89;85.71;99263.42;86054;1288;99775;-72
2022/11/06 06:18:55;;;;;;;45.60;21.60;;;;;;;6.89;86.26;99268.33;86134;1284;25718;-72
2022/11/06 06:21:00;;;;;;;42.90;21.70;;;;;;;6.89;85.92;99263.94;86034;1291;22523;-72
2022/11/06 06:23:02;;;;;;;38.10;20.80;;;;;;;6.89;86.03;99256.10;86016;1282;99447;-72
2022/11/06 06:25:04;;;;;;;45.20;21.40;;;;;;;6.92;86.01;99260.88;86025;1290;22493;-71
2022/11/06 06:27:06;;;;;;;37.10;20.90;;;;;;;6.92;86.20;99260.70;86023;1284;22519;-74
2022/11/06 06:29:08;;;;;;;48.30;21.60;;;;;;;6.93;86.17;99261.23;86055;1288;98912;-73
2022/11/06 06:31:09;;;;;;;39.10;20.10;;;;;;;6.94;86.29;99262.23;86212;1282;24478;-71
2022/11/06 06:33:11;;;;;;;35.70;20.20;;;;;;;6.95;85.99;99259.92;86193;1288;24446;-72
2022/11/06 06:35:13;;;;;;;42.80;19.60;;;;;;;6.97;86.29;99263.73;86133;1280;99820;-71
2022/11/06 06:37:15;;;;;;;33.90;18.50;;;;;;;6.97;86.27;99271.21;86187;1290;22505;-71
2022/11/06 06:39:18;;;;;;;36.90;19.40;;;;;;;6.98;86.13;99268.92;86102;1283;22910;-71
2022/11/06 06:41:20;;;;;;;34.30;19.40;;;;;;;7.01;86.12;99272.88;86061;1284;98340;-73
2022/11/06 06:43:22;;;;;;;40.60;19.80;;;;;;;7.03;86.19;99274.38;86033;1284;22510;-72
2022/11/06 06:45:25;;;;;;;34.90;19.60;;;;;;;7.05;86.17;99276.08;86245;1291;24389;-72
2022/11/06 06:47:26;;;;;;;33.00;20.00;;;;;;;7.07;86.16;99272.70;86073;1283;99878;-72
2022/11/06 06:49:28;;;;;;;33.30;19.10;;;;;;;7.10;86.12;99274.52;86087;1289;24056;-72
2022/11/06 06:51:30;;;;;;;37.90;19.60;;;;;;;7.11;86.19;99280.08;86067;1290;24258;-72
2022/11/06 06:53:34;;;;;;;43.80;20.30;;;;;;;7.13;86.09;99282.81;86024;1291;99726;-73
2022/11/06 06:55:36;;;;;;;32.70;19.80;;;;;;;7.15;86.16;99281.73;86036;1284;25304;-72
2022/11/06 06:57:37;;;;;;;39.00;19.80;;;;;;;7.17;85.99;99283.59;86094;1290;22614;-72
2022/11/06 06:59:39;;;;;;;39.10;18.40;;;;;;;7.20;86.00;99278.62;86120;1290;100109;-71
2022/11/06 07:01:41;;;;;;;43.40;19.50;;;;;;;7.23;86.09;99282.20;86916;1289;22522;-72
2022/11/06 07:03:42;;;;;;;46.00;20.60;;;;;;;7.26;86.08;99283.52;86949;1287;26842;-71
2022/11/06 07:05:45;;;;;;;36.60;18.40;;;;;;;7.28;85.92;99285.02;86775;1290;99872;-72
2022/11/06 07:07:47;;;;;;;41.00;19.90;;;;;;;7.30;86.13;99286.34;86906;1295;22738;-72
2022/11/06 07:09:49;;;;;;;39.80;18.70;;;;;;;7.34;86.03;99284.85;86985;1289;22444;-72
2022/11/06 07:11:50;;;;;;;32.10;18.30;;;;;;;7.36;86.07;99283.55;86875;1288;99615;-72
2022/11/06 07:13:52;;;;;;;46.10;17.90;;;;;;;7.38;86.29;99286.48;86769;1291;22681;-72
2022/11/06 07:15:54;;;;;;;32.60;18.00;;;;;;;7.38;86.28;99282.29;86822;1289;98415;-72
2022/11/06 07:18:04;;;;;;;42.90;17.70;;;;;;;7.38;86.05;99284.21;86768;1291;22700;-70
2022/11/06 07:20:08;;;;;;;34.20;17.90;;;;;;;7.39;85.89;99286.25;86897;1288;22440;-72
2022/11/06 07:22:09;;;;;;;36.50;17.10;;;;;;;7.42;85.81;99287.05;86388;1292;98362;-72
2022/11/06 07:24:11;;;;;;;36.00;16.60;;;;;;;7.44;85.84;99288.56;86758;1290;23799;-72
2022/11/06 07:26:13;;;;;;;27.10;15.50;;;;;;;7.47;86.11;99281.65;86712;1291;22458;-72
2022/11/06 07:28:14;;;;;;;39.50;17.90;;;;;;;7.50;85.94;99275.42;86720;1283;98515;-72
2022/11/06 07:30:16;;;;;;;29.00;16.40;;;;;;;7.54;85.74;99269.72;86638;1293;22705;-72
2022/11/06 07:32:18;;;;;;;34.60;15.20;;;;;;;7.57;86.13;99270.14;86999;1284;22581;-72
2022/11/06 07:34:20;;;;;;;30.80;13.50;;;;;;;7.60;85.99;99272.86;86687;1290;98727;-72
2022/11/06 07:36:21;;;;;;;29.40;14.20;;;;;;;7.62;86.03;99274.00;86568;1284;23361;-71
2022/11/06 07:38:23;;;;;;;35.40;14.70;;;;;;;7.66;85.82;99272.15;86606;1290;22519;-71
2022/11/06 07:40:24;;;;;;;30.50;14.10;;;;;;;7.69;85.93;99272.05;86612;1293;99821;-71
2022/11/06 07:42:27;;;;;;;31.80;12.40;;;;;;;7.71;86.02;99271.66;86423;1293;239049;-72
2022/11/06 07:44:30;;;;;;;22.60;12.60;;;;;;;7.73;85.90;99272.83;86821;1280;26565;-71
2022/11/06 07:46:31;;;;;;;34.90;11.60;;;;;;;7.74;86.15;99274.16;86732;1283;98087;-72
2022/11/06 07:48:33;;;;;;;27.60;11.50;;;;;;;7.75;85.71;99273.43;86775;1290;22538;-72
2022/11/06 07:50:35;;;;;;;34.40;12.60;;;;;;;7.77;85.96;99273.04;86731;1290;22498;-72
2022/11/06 07:52:37;;;;;;;28.40;12.10;;;;;;;7.78;85.55;99273.15;86581;1291;98039;-71
2022/11/06 07:54:39;;;;;;;26.10;12.20;;;;;;;7.81;85.50;99274.81;86835;1289;22511;-73
2022/11/06 07:56:40;;;;;;;24.80;12.10;;;;;;;7.84;85.46;99270.01;86858;1281;22566;-71
2022/11/06 07:58:42;;;;;;;25.80;11.50;;;;;;;7.88;85.44;99266.38;86695;1283;98262;-72
2022/11/06 08:00:48;;;;;;;30.90;11.20;;;;;;;7.92;85.50;99268.88;86992;1280;22927;-71
2022/11/06 08:02:51;;;;;;;20.80;10.50;;;;;;;7.93;85.71;99263.41;86601;1290;22577;-72
2022/11/06 08:04:53;;;;;;;27.40;11.70;;;;;;;7.90;85.08;99268.23;86503;1290;98082;-71
2022/11/06 08:06:56;;;;;;;26.10;12.40;;;;;;;7.90;85.11;99265.59;86651;1284;22836;-73
2022/11/06 08:08:58;;;;;;;26.20;11.00;;;;;;;7.93;85.47;99267.08;86669;1283;24545;-72
2022/11/06 08:11:05;;;;;;;23.00;11.10;;;;;;;7.97;85.59;99269.23;86592;1293;99418;-73
2022/11/06 08:13:06;;;;;;;31.50;12.10;;;;;;;7.99;85.30;99268.96;86730;1283;23459;-73
2022/11/06 08:15:09;;;;;;;29.10;11.90;;;;;;;8.02;85.22;99272.58;86685;1290;22559;-71
2022/11/06 08:17:10;;;;;;;30.30;11.80;;;;;;;8.05;85.25;99273.02;86694;1288;98091;-72
2022/11/06 08:19:12;;;;;;;30.00;11.90;;;;;;;8.08;85.35;99271.67;86795;1288;22498;-72
2022/11/06 08:21:14;;;;;;;32.30;12.30;;;;;;;8.11;85.27;99268.95;86632;1291;22516;-72
2022/11/06 08:23:15;;;;;;;27.80;11.30;;;;;;;8.14;85.33;99275.16;86585;1291;98657;-73
2022/11/06 08:25:17;;;;;;;28.00;11.80;;;;;;;8.15;85.38;99272.33;86640;1283;22512;-71
2022/11/06 08:27:19;;;;;;;23.40;11.80;;;;;;;8.16;85.37;99265.98;86594;1300;23342;-71
2022/11/06 08:29:21;;;;;;;34.40;11.80;;;;;;;8.19;85.29;99266.21;86724;1283;98251;-72
2022/11/06 08:31:23;;;;;;;29.20;12.40;;;;;;;8.24;85.10;99266.58;87020;1289;22487;-72
2022/11/06 08:33:25;;;;;;;27.90;12.90;;;;;;;8.26;84.85;99267.92;86918;1287;22813;-71
2022/11/06 08:35:26;;;;;;;23.20;11.60;;;;;;;8.29;85.05;99268.17;86694;1291;98107;-72
2022/11/06 08:37:28;;;;;;;25.10;12.20;;;;;;;8.31;85.16;99263.88;86828;1287;23517;-72
2022/11/06 08:39:30;;;;;;;28.90;11.40;;;;;;;8.34;85.03;99262.73;86905;1280;22513;-72
2022/11/06 08:41:31;;;;;;;29.60;12.10;;;;;;;8.35;85.07;99264.08;86596;1291;98188;-72
2022/11/06 08:43:34;;;;;;;20.70;11.40;;;;;;;8.36;84.84;99258.66;86863;1290;22563;-73
2022/11/06 08:45:39;;;;;;;24.00;12.50;;;;;;;8.39;84.78;99263.98;86762;1291;22495;-72
2022/11/06 08:47:40;;;;;;;22.40;10.40;;;;;;;8.40;84.68;99261.86;86909;1284;99551;-74
2022/11/06 08:49:43;;;;;;;20.40;11.10;;;;;;;8.39;85.07;99266.59;86879;1290;22492;-74
2022/11/06 08:51:45;;;;;;;22.10;12.90;;;;;;;8.39;84.75;99264.88;86877;1291;22492;-71
2022/11/06 08:53:47;;;;;;;28.90;12.30;;;;;;;8.39;84.84;99263.64;86768;1288;100281;-72
2022/11/06 08:55:49;;;;;;;25.50;12.30;;;;;;;8.41;84.65;99268.27;86799;1290;22564;-72
2022/11/06 08:57:54;;;;;;;27.90;13.10;;;;;;;8.44;84.67;99269.79;86771;1291;22500;-72
2022/11/06 08:59:55;;;;;;;29.70;12.20;;;;;;;8.46;84.81;99271.30;86721;1284;22499;-72
2022/11/06 09:01:58;;;;;;;23.50;12.70;;;;;;;8.45;84.59;99269.21;86854;1288;22664;-71
2022/11/06 09:04:02;;;;;;;36.50;12.80;;;;;;;8.46;84.53;99267.63;86610;1291;98143;-72
2022/11/06 09:06:05;;;;;;;37.20;13.30;;;;;;;8.48;84.87;99268.59;86815;1288;22555;-72
2022/11/06 09:08:09;;;;;;;23.90;12.10;;;;;;;8.51;84.61;99265.17;86907;1284;25398;-73
2022/11/06 09:10:10;;;;;;;27.50;12.90;;;;;;;8.52;84.57;99265.65;86685;1283;99349;-73
2022/11/06 09:12:19;;;;;;;24.60;14.10;;;;;;;8.55;84.72;99265.02;86780;1298;22890;-72
2022/11/06 09:14:20;;;;;;;26.10;12.60;;;;;;;8.60;85.10;99267.31;86689;1292;26902;-71
2022/11/06 09:16:23;;;;;;;26.60;12.70;;;;;;;8.64;84.74;99269.60;86744;1297;98203;-73
2022/11/06 09:18:25;;;;;;;33.00;12.90;;;;;;;8.68;84.56;99268.41;86800;1290;22526;-71
2022/11/06 09:20:27;;;;;;;32.50;14.40;;;;;;;8.71;84.69;99262.55;86676;1310;22542;-73
2022/11/06 09:22:29;;;;;;;26.80;13.60;;;;;;;8.75;84.44;99262.57;86753;1281;98836;-71
2022/11/06 09:24:31;;;;;;;30.50;13.40;;;;;;;8.77;84.69;99263.36;86652;1299;25956;-73
2022/11/06 09:26:33;;;;;;;31.20;14.30;;;;;;;8.80;84.41;99263.61;86796;1296;22512;-71
2022/11/06 09:28:35;;;;;;;43.10;15.90;;;;;;;8.82;84.45;99264.41;86610;1307;98896;-72
2022/11/06 09:30:37;;;;;;;32.30;14.50;;;;;;;8.85;84.57;99261.48;86810;1289;22831;-72
2022/11/06 09:32:45;;;;;;;33.10;14.90;;;;;;;8.88;84.57;99264.05;86715;1290;24365;-72
2022/11/06 09:34:46;;;;;;;28.70;13.70;;;;;;;8.88;84.64;99266.30;86789;1297;98471;-71
2022/11/06 09:36:48;;;;;;;30.30;14.00;;;;;;;8.89;84.36;99266.62;86808;1289;22480;-72
2022/11/06 09:38:50;;;;;;;25.60;13.10;;;;;;;8.89;84.63;99266.80;86953;1296;25541;-73
2022/11/06 09:40:56;;;;;;;30.60;14.00;;;;;;;8.90;84.41;99267.29;87197;1291;99046;-74
2022/11/06 09:43:28;;;;;;;29.10;12.90;;;;;;;8.89;84.35;99264.30;87412;1291;22219;-74
2022/11/06 09:45:31;;;;;;;;;;;;;;;8.91;84.28;99260.39;87623;1307;23811;-73
2022/11/06 09:47:39;;;;;;;25.60;14.60;;;;;;;8.90;84.17;99263.98;87152;1288;85640;-74
2022/11/06 09:49:52;;;;;;;31.60;14.00;;;;;;;8.88;84.28;99265.27;87174;1290;22546;-74
2022/11/06 09:52:13;;;;;;;32.10;14.20;;;;;;;8.85;84.35;99268.69;86964;1309;99381;-74
2022/11/06 09:54:26;;;;;;;24.90;14.20;;;;;;;8.84;83.99;99268.37;87049;1290;22503;-73
2022/11/06 09:56:33;;;;;;;30.00;15.20;;;;;;;8.85;84.16;99269.57;87084;1294;24372;-74